Time;durP1;ratioP1;P1;durP2;ratioP2;P2;SDS_P1;SDS_P2;PMS_P1;PMS_P2;Temp;Humidity;BMP_temperature;BMP_pressure;BME280_temperature;BME280_humidity;BME280_pressure;Samples;Min_cycle;Max_cycle;Signal;HPM_P1;HPM_P2
2022/02/10 00:35:42;;;;;;;9.00;7.93;;;-0.50;99.90;;;;;;6248737;23;20136;-79
2022/02/10 00:38:08;;;;;;;8.93;7.63;;;-0.40;99.90;;;;;;6248670;22;20140;-79
2022/02/10 00:40:36;;;;;;;12.83;8.33;;;-0.40;99.90;;;;;;6248107;22;20172;-79
2022/02/10 00:43:04;;;;;;;9.77;7.33;;;-0.40;99.90;;;;;;6247689;22;20224;-78
2022/02/10 00:45:32;;;;;;;12.27;7.43;;;-0.30;99.90;;;;;;6247806;22;20148;-80
2022/02/10 00:48:02;;;;;;;11.33;7.90;;;-0.40;99.90;;;;;;6247498;22;20230;-79
2022/02/10 00:50:30;;;;;;;10.70;8.33;;;-0.40;99.90;;;;;;6247790;22;20188;-79
2022/02/10 00:55:29;;;;;;;8.93;7.20;;;-0.30;99.90;;;;;;6258230;22;20255;-79
2022/02/10 00:57:56;;;;;;;12.43;7.77;;;-0.30;99.90;;;;;;6247597;22;20521;-79
2022/02/10 01:14:06;;;;;;;13.07;7.67;;;-0.60;99.90;;;;;;6247687;23;20141;-79
2022/02/10 01:30:13;;;;;;;10.70;7.63;;;-0.30;99.90;;;;;;6247225;23;20254;-79
2022/02/10 01:32:42;;;;;;;8.67;7.50;;;-0.50;99.90;;;;;;6245736;23;20214;-78
2022/02/10 01:35:10;;;;;;;7.30;6.57;;;-0.50;99.90;;;;;;6247372;22;20202;-78
2022/02/10 01:37:37;;;;;;;9.23;6.77;;;-0.50;99.90;;;;;;6245480;23;20149;-77
2022/02/10 01:40:10;;;;;;;10.03;7.57;;;-0.60;99.90;;;;;;6247499;22;20161;-78
2022/02/10 02:04:24;;;;;;;7.83;6.37;;;-0.60;99.90;;;;;;6247149;23;20194;-78
2022/02/10 02:06:51;;;;;;;8.23;7.13;;;-0.50;99.90;;;;;;6247107;22;20598;-78
2022/02/10 02:09:18;;;;;;;9.30;6.83;;;-0.60;99.90;;;;;;6246864;22;20177;-79
2022/02/10 02:11:46;;;;;;;9.43;6.90;;;-0.60;99.90;;;;;;6245185;23;20173;-79
2022/02/10 02:14:14;;;;;;;10.60;6.20;;;-0.60;99.90;;;;;;6246926;22;20210;-79
2022/02/10 02:16:55;;;;;;;12.83;6.33;;;-0.60;99.90;;;;;;6246565;22;20605;-79
2022/02/10 02:19:22;;;;;;;9.63;6.00;;;-0.70;99.90;;;;;;6247415;22;20477;-79
2022/02/10 02:21:48;;;;;;;10.07;6.47;;;-0.70;99.90;;;;;;6246398;22;20233;-78
2022/02/10 02:24:20;;;;;;;7.03;6.30;;;-0.80;99.90;;;;;;6244869;23;20497;-78
2022/02/10 02:26:50;;;;;;;7.47;6.70;;;-0.90;99.90;;;;;;6245231;23;20154;-79
2022/02/10 02:29:23;;;;;;;8.37;6.50;;;-0.90;99.90;;;;;;6246634;22;20195;-79
2022/02/10 02:31:55;;;;;;;7.13;6.37;;;-0.90;99.90;;;;;;6246569;22;20209;-79
2022/02/10 02:34:47;;;;;;;8.70;6.47;;;-0.90;99.90;;;;;;6245215;23;20145;-78
2022/02/10 02:39:58;;;;;;;7.27;5.70;;;-0.90;99.90;;;;;;6247308;22;20609;-78
2022/02/10 03:07:34;;;;;;;10.00;6.87;;;-1.20;99.90;;;;;;6246265;23;20180;-78
2022/02/10 03:10:56;;;;;;;10.63;7.07;;;-1.20;99.90;;;;;;6246112;23;20255;-79
2022/02/10 03:12:38;;;;;;;8.47;7.13;;;-1.20;99.90;;;;;;6229484;23;20369;-78
2022/02/10 03:15:10;;;;;;;8.60;7.70;;;-1.00;99.90;;;;;;6243584;23;20160;-79
2022/02/10 04:03:32;;;;;;;13.13;7.77;;;-1.20;99.90;;;;;;6256937;22;20609;-78
2022/02/10 04:16:44;;;;;;;10.87;8.20;;;-1.00;99.90;;;;;;6246411;23;20143;-77
2022/02/10 04:22:37;;;;;;;10.23;7.73;;;-0.90;99.90;;;;;;6245915;23;20272;-79
2022/02/10 04:25:09;;;;;;;14.23;8.77;;;-1.00;99.90;;;;;;6242394;23;20160;-78
2022/02/10 05:05:22;;;;;;;11.60;9.83;;;-1.40;99.90;;;;;;6256747;23;20144;-78
2022/02/10 05:34:15;;;;;;;11.47;9.30;;;-1.20;99.90;;;;;;6257547;22;20225;-79
2022/02/10 05:36:42;;;;;;;14.90;10.23;;;-1.20;99.90;;;;;;6247618;22;20145;-79
2022/02/10 05:39:28;;;;;;;15.23;9.67;;;-1.20;99.90;;;;;;6247250;22;20594;-78
2022/02/10 05:42:38;;;;;;;14.07;10.00;;;-1.20;99.90;;;;;;6246270;23;20176;-79
2022/02/10 05:45:03;;;;;;;19.10;11.17;;;-1.20;99.90;;;;;;6247193;23;20539;-78
2022/02/10 05:50:31;;;;;;;17.00;10.57;;;-1.20;99.90;;;;;;6247370;23;20164;-78
2022/02/10 06:43:32;;;;;;;12.60;10.40;;;-0.90;99.90;;;;;;6184448;22;20180;-78
2022/02/10 06:53:03;;;;;;;18.53;10.93;;;;;;;;;;6254699;22;20130;-81
2022/02/10 07:06:14;;;;;;;18.53;10.60;;;;;;;;;;6246270;23;20195;-80
2022/02/10 07:09:01;;;;;;;14.57;10.87;;;;;;;;;;6248589;22;20194;-80
2022/02/10 07:52:12;;;;;;;17.47;12.17;;;-0.30;99.90;;;;;;6251253;23;20187;-79
2022/02/10 07:55:11;;;;;;;19.10;12.50;;;;;;;;;;6251319;23;20228;-80
2022/02/10 08:00:31;;;;;;;17.23;12.33;;;;;;;;;;6256656;23;20196;-81
2022/02/10 09:00:37;;;;;;;22.70;14.60;;;2.20;99.90;;;;;;6255431;22;20195;-81
2022/02/10 09:05:58;;;;;;;21.07;14.73;;;2.40;99.90;;;;;;6247668;23;20149;-80
2022/02/10 09:25:40;;;;;;;18.70;12.30;;;;;;;;;;6250501;23;20523;-79
2022/02/10 09:47:19;;;;;;;14.63;12.13;;;;;;;;;;6243317;23;20564;-79
2022/02/10 10:01:47;;;;;;;15.67;9.63;;;;;;;;;;6247112;23;20200;-81
2022/02/10 10:04:18;;;;;;;12.07;8.83;;;;;;;;;;6246555;23;20136;-80
2022/02/10 10:10:03;;;;;;;10.97;8.67;;;;;;;;;;6195707;23;20474;-81
2022/02/10 10:15:26;;;;;;;14.50;8.23;;;;;;;;;;6247572;23;20236;-82
2022/02/10 10:51:11;;;;;;;12.17;7.90;;;;;;;;;;6248892;23;20657;-82
2022/02/10 10:53:49;;;;;;;11.57;7.83;;;;;;;;;;6248590;23;20204;-82
2022/02/10 10:56:26;;;;;;;11.40;6.93;;;;;;;;;;6248702;23;20133;-81
2022/02/10 11:38:17;;;;;;;9.10;6.83;;;;;;;;;;6248508;23;20147;-82
2022/02/10 11:44:10;;;;;;;8.13;6.33;;;;;;;;;;6257632;23;20138;-82
2022/02/10 11:47:36;;;;;;;8.50;6.00;;;;;;;;;;6249388;23;20586;-83
2022/02/10 12:35:50;;;;;;;6.40;5.30;;;;;;;;;;6260939;23;20143;-83
2022/02/10 14:12:55;;;;;;;9.47;3.90;;;;;;;;;;6254278;23;20162;-82
2022/02/10 14:28:10;;;;;;;6.77;3.60;;;;;;;;;;6253799;23;20178;-84
2022/02/10 14:30:36;;;;;;;7.57;3.60;;;;;;;;;;6253540;23;20169;-83
2022/02/10 14:33:02;;;;;;;5.23;3.17;;;;;;;;;;6253437;23;20187;-83
2022/02/10 14:35:35;;;;;;;7.63;3.70;;;;;;;;;;6253771;23;20586;-82
2022/02/10 14:38:22;;;;;;;7.90;3.63;;;;;;;;;;6253226;23;20167;-82
2022/02/10 15:10:47;;;;;;;7.60;3.70;;;;;;;;;;6266147;23;20135;-85
2022/02/10 15:14:53;;;;;;;8.73;3.37;;;;;;;;;;6255008;23;20157;-82
2022/02/10 15:17:25;;;;;;;8.90;3.63;;;;;;;;;;6255127;23;20158;-82
2022/02/10 16:11:11;;;;;;;5.67;3.80;;;;;;;;;;6253771;23;20511;-83
2022/02/10 16:14:55;;;;;;;9.67;4.40;;;;;;;;;;6254572;23;20135;-83
2022/02/10 16:16:53;;;;;;;6.90;4.30;;;;;;;;;;6235093;23;20155;-84
2022/02/10 16:19:19;;;;;;;7.50;4.40;;;;;;;;;;6254892;23;20126;-84
2022/02/10 16:21:57;;;;;;;8.77;4.43;;;;;;;;;;6253425;23;20166;-83
2022/02/10 16:24:30;;;;;;;10.97;4.83;;;;;;;;;;6254207;23;20126;-83
2022/02/10 16:26:59;;;;;;;8.20;4.60;;;;;;;;;;6253468;23;20146;-82
2022/02/10 16:29:26;;;;;;;7.90;4.37;;;;;;;;;;6253857;23;20183;-82
2022/02/10 16:31:52;;;;;;;7.23;4.17;;;;;;;;;;6252595;23;20200;-83
2022/02/10 16:34:19;;;;;;;7.10;4.40;;;;;;;;;;6254060;23;20505;-82
2022/02/10 16:36:46;;;;;;;7.30;4.20;;;;;;;;;;6255503;23;20258;-83
2022/02/10 16:39:14;;;;;;;8.97;4.90;;;;;;;;;;6253179;23;20160;-82
2022/02/10 16:41:40;;;;;;;9.07;5.27;;;;;;;;;;6253529;23;20203;-82
2022/02/10 16:44:06;;;;;;;8.17;4.97;;;;;;;;;;6252062;23;20160;-82
2022/02/10 16:46:33;;;;;;;9.23;5.67;;;;;;;;;;6255059;23;20196;-82
2022/02/10 16:48:59;;;;;;;11.33;5.40;;;;;;;;;;6253182;23;20169;-82
2022/02/10 16:51:26;;;;;;;7.47;5.67;;;;;;;;;;6254497;23;20165;-83
2022/02/10 16:53:59;;;;;;;8.63;5.63;;;;;;;;;;6253230;23;20151;-83
2022/02/10 16:56:34;;;;;;;13.60;5.50;;;;;;;;;;6255218;23;20126;-83
2022/02/10 16:59:12;;;;;;;6.60;5.70;;;;;;;;;;6254491;23;20149;-83
2022/02/10 17:18:27;;;;;;;10.70;5.57;;;;;;;;;;6253697;23;20189;-83
2022/02/10 17:28:49;;;;;;;5.13;4.30;;;;;;;;;;6263905;23;20175;-82
2022/02/10 17:36:34;;;;;;;5.97;3.60;;;;;;;;;;6264054;23;20141;-82
2022/02/10 17:52:56;;;;;;;9.07;6.03;;;;;;;;;;6252175;23;20148;-83
2022/02/10 17:55:34;;;;;;;8.63;5.43;;;;;;;;;;6251682;23;20135;-81
2022/02/10 17:58:00;;;;;;;11.90;7.47;;;;;;;;;;6251405;23;20236;-82
2022/02/10 18:00:29;;;;;;;11.70;7.07;;;;;;;;;;6250877;23;20185;-82
2022/02/10 18:02:59;;;;;;;9.33;6.83;;;;;;;;;;6251195;23;20177;-83
2022/02/10 18:08:05;;;;;;;13.27;8.10;;;;;;;;;;6260352;23;20540;-84
2022/02/10 18:15:39;;;;;;;10.67;7.77;;;;;;;;;;6252864;23;20188;-83
2022/02/10 18:18:12;;;;;;;12.07;7.80;;;;;;;;;;6249511;23;20142;-85
2022/02/10 18:20:43;;;;;;;12.53;6.97;;;;;;;;;;6251943;23;20180;-85
2022/02/10 18:25:51;;;;;;;7.93;6.90;;;;;;;;;;6242288;23;20489;-83
2022/02/10 18:28:26;;;;;;;9.67;6.30;;;;;;;;;;6249376;23;20177;-82
2022/02/10 18:34:03;;;;;;;13.80;6.60;;;;;;;;;;6247633;23;20163;-83
2022/02/10 19:02:05;;;;;;;11.83;6.10;;;;;;;;;;6246021;23;20200;-85
2022/02/10 19:12:17;;;;;;;13.97;7.90;;;;;;;;;;6227640;23;20509;-83
2022/02/10 19:14:51;;;;;;;16.00;8.00;;;;;;;;;;6248069;23;20137;-83
2022/02/10 19:17:17;;;;;;;10.57;7.30;;;;;;;;;;6248108;23;20191;-81
2022/02/10 19:19:43;;;;;;;13.17;7.53;;;;;;;;;;6249367;23;20602;-82
2022/02/10 19:22:09;;;;;;;9.93;6.67;;;;;;;;;;6248980;23;20168;-83
2022/02/10 19:24:35;;;;;;;16.80;7.53;;;;;;;;;;6247328;23;20150;-81
2022/02/10 19:27:01;;;;;;;13.10;7.30;;;;;;;;;;6248246;23;20153;-80
2022/02/10 19:29:28;;;;;;;11.67;7.33;;;;;;;;;;6248754;23;20186;-80
2022/02/10 19:31:54;;;;;;;10.97;6.87;;;;;;;;;;6248536;23;20166;-82
2022/02/10 19:34:20;;;;;;;13.53;7.53;;;;;;;;;;6249117;23;20152;-84
2022/02/10 19:36:47;;;;;;;18.97;7.60;;;;;;;;;;6248846;23;20146;-81
2022/02/10 19:39:17;;;;;;;13.13;6.43;;;;;;;;;;6249552;23;20205;-81
2022/02/10 19:41:47;;;;;;;12.03;7.33;;;;;;;;;;6249726;23;20224;-81
2022/02/10 19:44:14;;;;;;;10.23;6.70;;;;;;;;;;6249829;23;20485;-81
2022/02/10 19:46:42;;;;;;;10.20;7.07;;;;;;;;;;6250371;23;20157;-81
2022/02/10 19:49:13;;;;;;;10.43;5.77;;;;;;;;;;6252554;23;20193;-82
2022/02/10 19:51:39;;;;;;;9.40;5.70;;;;;;;;;;6252768;23;20168;-81
2022/02/10 19:54:06;;;;;;;7.50;5.57;;;;;;;;;;6252341;23;20465;-82
2022/02/10 19:56:33;;;;;;;6.77;5.53;;;;;;;;;;6253477;23;20146;-82
2022/02/10 19:58:59;;;;;;;11.77;6.00;;;;;;;;;;6253323;23;20152;-81
2022/02/10 20:01:27;;;;;;;7.97;5.73;;;;;;;;;;6255328;23;20630;-82
2022/02/10 20:03:53;;;;;;;8.23;5.80;;;;;;;;;;6256871;23;20142;-82
2022/02/10 20:06:19;;;;;;;11.93;6.47;;;;;;;;;;6252291;23;20153;-81
2022/02/10 20:08:47;;;;;;;11.53;6.50;;;;;;;;;;6254702;23;20176;-82
2022/02/10 20:11:13;;;;;;;10.93;5.83;;;;;;;;;;6254505;23;20618;-83
2022/02/10 20:13:39;;;;;;;9.57;6.37;;;;;;;;;;6255292;23;20145;-82
2022/02/10 20:16:08;;;;;;;7.47;5.73;;;;;;;;;;6255492;23;20149;-82
2022/02/10 20:18:38;;;;;;;10.07;6.10;;;;;;;;;;6254739;23;20153;-82
2022/02/10 20:21:04;;;;;;;7.30;6.10;;;;;;;;;;6256947;23;20173;-82
2022/02/10 20:23:33;;;;;;;8.17;5.90;;;;;;;;;;6256916;23;20512;-82
2022/02/10 20:26:00;;;;;;;12.33;6.70;;;;;;;;;;6254970;23;20149;-82
2022/02/10 20:28:29;;;;;;;7.27;5.87;;;;;;;;;;6256679;23;20169;-82
2022/02/10 20:30:55;;;;;;;8.13;5.57;;;;;;;;;;6255099;23;20161;-81
2022/02/10 20:33:24;;;;;;;8.47;6.10;;;;;;;;;;6256010;23;20145;-82
2022/02/10 20:35:56;;;;;;;8.73;5.93;;;;;;;;;;6254480;23;20145;-82
2022/02/10 20:38:22;;;;;;;8.80;5.67;;;;;;;;;;6255189;23;20129;-81
2022/02/10 20:40:56;;;;;;;9.80;6.40;;;;;;;;;;6254510;23;20165;-82
2022/02/10 20:43:22;;;;;;;9.03;6.37;;;;;;;;;;6255373;23;20209;-81
2022/02/10 20:45:55;;;;;;;10.47;6.30;;;;;;;;;;6254343;23;20142;-82
2022/02/10 20:48:22;;;;;;;14.90;6.40;;;;;;;;;;6255698;23;20166;-82
2022/02/10 20:50:53;;;;;;;8.93;5.83;;;;;;;;;;6255340;23;20161;-83
2022/02/10 20:53:20;;;;;;;8.63;6.37;;;;;;;;;;6253968;23;20126;-80
2022/02/10 20:55:48;;;;;;;8.37;6.00;;;;;;;;;;6252531;23;20476;-82
2022/02/10 20:58:18;;;;;;;8.53;6.47;;;;;;;;;;6252837;23;20792;-83
2022/02/10 21:00:44;;;;;;;9.83;6.73;;;;;;;;;;6254997;23;20634;-82
2022/02/10 21:03:10;;;;;;;7.33;5.97;;;;;;;;;;6254369;23;20550;-82
2022/02/10 21:05:40;;;;;;;7.93;5.80;;;;;;;;;;6254381;23;20144;-82
2022/02/10 21:10:35;;;;;;;10.07;6.60;;;;;;;;;;6256688;23;20165;-81
2022/02/10 21:13:01;;;;;;;8.80;6.63;;;;;;;;;;6256511;23;20491;-82
2022/02/10 21:15:31;;;;;;;11.37;7.10;;;;;;;;;;6256572;23;20184;-81
2022/02/10 21:18:02;;;;;;;7.33;6.37;;;;;;;;;;6257695;23;20180;-83
2022/02/10 21:20:30;;;;;;;7.57;6.67;;;;;;;;;;6256922;23;20172;-81
2022/02/10 21:23:36;;;;;;;7.03;6.33;;;;;;;;;;6256907;23;20137;-81
2022/02/10 21:25:54;;;;;;;7.50;6.73;;;;;;;;;;6247764;23;20157;-80
2022/02/10 21:28:26;;;;;;;11.10;6.90;;;;;;;;;;6251571;23;20162;-80
2022/02/10 21:30:55;;;;;;;14.90;6.87;;;;;;;;;;6251072;23;20196;-80
2022/02/10 21:33:29;;;;;;;11.60;6.97;;;;;;;;;;6252469;23;20149;-80
2022/02/10 21:38:24;;;;;;;8.57;6.47;;;;;;;;;;6250605;23;20292;-80
2022/02/10 21:57:20;;;;;;;10.03;6.93;;;;;;;;;;6259241;23;20194;-81
2022/02/10 22:11:12;;;;;;;7.67;5.57;;;;;;;;;;6249930;23;20720;-82
2022/02/10 22:19:06;;;;;;;9.17;6.17;;;;;;;;;;6259596;23;20224;-82
2022/02/10 22:21:44;;;;;;;9.87;6.50;;;;;;;;;;6250404;23;20166;-82
2022/02/10 22:24:13;;;;;;;7.53;6.10;;;;;;;;;;6250859;23;20153;-82
2022/02/10 22:26:40;;;;;;;7.17;6.30;;;;;;;;;;6253644;23;20183;-82
2022/02/10 22:29:15;;;;;;;9.77;6.77;;;;;;;;;;6254002;23;20175;-82
2022/02/10 22:36:38;;;;;;;8.57;6.67;;;;;;;;;;6253798;23;20145;-82
2022/02/10 22:39:04;;;;;;;8.63;6.97;;;;;;;;;;6251807;23;20468;-82
2022/02/10 22:41:31;;;;;;;7.67;6.87;;;;;;;;;;6251939;23;20166;-82
2022/02/10 22:43:59;;;;;;;9.27;7.60;;;;;;;;;;6253469;23;20149;-82
2022/02/10 22:46:25;;;;;;;8.30;7.20;;;;;;;;;;6253687;23;20196;-82
2022/02/10 22:48:51;;;;;;;8.83;7.40;;;;;;;;;;6252599;23;20223;-82
2022/02/10 22:51:21;;;;;;;9.47;6.83;;;;;;;;;;6252070;23;20165;-82
2022/02/10 22:53:47;;;;;;;11.93;7.77;;;;;;;;;;6254149;23;20605;-82
2022/02/10 22:56:17;;;;;;;9.47;6.50;;;;;;;;;;6253126;23;20187;-83
2022/02/10 22:58:43;;;;;;;9.20;7.33;;;;;;;;;;6253314;23;20593;-82
2022/02/10 23:01:11;;;;;;;9.53;6.97;;;;;;;;;;6256949;23;20187;-83
2022/02/10 23:03:38;;;;;;;8.23;6.80;;;;;;;;;;6254193;23;20143;-82
2022/02/10 23:06:06;;;;;;;11.33;6.27;;;;;;;;;;6253887;23;20145;-81
2022/02/10 23:08:32;;;;;;;9.93;6.63;;;;;;;;;;6252957;23;20164;-82
2022/02/10 23:10:58;;;;;;;8.97;6.67;;;;;;;;;;6253564;23;20158;-82
2022/02/10 23:13:28;;;;;;;8.77;6.90;;;;;;;;;;6252252;23;20177;-82
2022/02/10 23:15:55;;;;;;;9.87;6.27;;;;;;;;;;6253344;23;20471;-82
2022/02/10 23:18:24;;;;;;;12.00;7.07;;;;;;;;;;6252133;23;20149;-82
2022/02/10 23:20:51;;;;;;;11.53;6.43;;;;;;;;;;6253102;23;20161;-83
2022/02/10 23:23:18;;;;;;;7.93;5.57;;;;;;;;;;6250771;23;20145;-82
2022/02/10 23:25:45;;;;;;;9.10;6.07;;;;;;;;;;6252623;23;20172;-82
2022/02/10 23:28:13;;;;;;;15.67;6.60;;;;;;;;;;6252148;23;20149;-82
2022/02/10 23:30:40;;;;;;;8.23;6.40;;;;;;;;;;6252367;23;20165;-83
2022/02/10 23:33:17;;;;;;;8.97;6.80;;;;;;;;;;6251562;23;20141;-82
2022/02/10 23:38:33;;;;;;;12.60;8.10;;;;;;;;;;6252487;23;20161;-82
2022/02/10 23:43:31;;;;;;;15.50;6.60;;;;;;;;;;6262630;23;20142;-82
2022/02/10 23:45:57;;;;;;;11.70;5.63;;;;;;;;;;6249927;23;20454;-82
2022/02/10 23:48:25;;;;;;;5.67;5.13;;;;;;;;;;6250244;22;20153;-82
2022/02/10 23:50:51;;;;;;;9.70;5.93;;;;;;;;;;6254991;23;20670;-83
2022/02/10 23:53:17;;;;;;;9.50;6.50;;;;;;;;;;6254590;23;20137;-82
2022/02/10 23:55:45;;;;;;;10.73;6.07;;;;;;;;;;6252438;23;20161;-82
